Date,TemperatureHighF,TemperatureAvgF,TemperatureLowF,DewpointHighF,DewpointAvgF,DewpointLowF,HumidityHigh,HumidityAvg,HumidityLow,PressureMaxIn,PressureMinIn,WindSpeedMaxMPH,WindSpeedAvgMPH,GustSpeedMaxMPH,PrecipitationSumIn
2013-1-1,26,18,10,18,10,6,83,71,47,30.27,30.13,4,2,10,0.00
2013-1-2,30,18,9,18,11,5,85,75,50,30.25,30.13,8,3,17,0.00
2013-1-3,33,27,18,27,20,14,90,78,58,30.32,30.14,9,4,17,0.00
2013-1-4,36,23,12,24,18,9,88,79,60,30.31,30.22,8,2,17,0.00
2013-1-5,35,29,21,33,26,17,95,88,72,30.27,29.97,8,4,16,0.01
2013-1-6,35,26,17,33,22,15,93,86,73,30.36,29.96,9,4,19,0.01
2013-1-7,40,28,16,29,22,14,92,82,63,30.36,30.12,9,4,19,0.00
2013-1-8,46,34,26,34,28,23,91,80,56,30.16,30.04,8,4,17,0.00
2013-1-9,50,38,28,35,29,23,92,73,43,30.49,30.03,12,3,21,0.00
2013-1-10,29,26,24,24,22,20,89,85,80,30.49,30.46,1,0,2,0.00
2013-1-14,26,20,14,18,15,10,88,80,66,30.48,30.44,3,1,8,0.00
2013-1-15,31,21,13,22,17,10,92,82,62,30.46,30.14,1,0,7,0.00
2013-1-16,36,27,16,30,22,13,91,82,68,30.14,29.88,7,2,18,0.01
2013-1-17,34,28,20,31,22,16,93,78,59,30.43,30.07,6,1,14,0.01
2013-1-18,42,32,20,33,26,16,89,79,67,30.45,29.96,11,5,23,0.00
2013-1-19,50,40,30,39,33,16,84,75,56,30.01,29.76,16,5,34,0.00
2013-1-20,29,18,14,18,9,6,77,67,58,30.33,29.99,14,6,28,0.00
2013-1-21,15,10,4,10,0,-6,82,65,46,30.35,30.20,12,7,21,0.00
2013-1-22,13,8,1,2,-2,-5,81,66,53,30.46,30.34,7,4,16,0.00
2013-1-23,25,17,12,13,7,2,85,65,57,30.40,30.14,8,2,19,0.00
2013-1-24,24,16,6,10,4,-2,73,60,42,30.65,30.36,5,2,12,0.00
2013-1-25,34,24,18,24,16,7,90,72,54,30.38,29.99,7,2,13,0.02
2013-1-26,31,21,10,18,12,6,84,71,49,30.42,30.21,3,0,8,0.01
2013-1-27,39,30,24,38,25,17,98,84,70,30.39,29.90,7,2,14,0.08
2013-1-28,53,45,39,53,44,38,99,98,96,29.93,29.76,9,2,17,0.11
2013-1-29,63,57,51,60,56,50,99,96,91,29.76,29.36,9,5,22,1.11
2013-1-30,51,35,21,50,34,17,99,95,85,29.68,29.23,12,5,22,0.95
2013-1-31,21,12,4,17,6,-2,85,77,72,30.26,29.68,11,8,23,0.00
2013-2-1,19,10,1,14,3,-4,81,75,66,30.44,30.21,9,4,17,0.00
2013-2-2,26,19,10,23,15,6,92,86,77,30.21,30.03,7,2,14,0.00
2013-2-3,26,20,12,21,16,8,95,83,68,30.10,29.98,9,2,17,0.00
2013-2-4,35,26,18,28,22,14,90,84,71,30.04,29.83,5,1,9,0.02
2013-2-5,34,26,15,31,23,11,92,88,83,30.11,29.83,8,2,17,0.01
2013-2-6,42,33,22,34,28,19,91,82,67,30.22,30.09,5,2,11,0.00
2013-2-7,35,34,32,34,32,30,98,95,89,30.09,29.85,5,1,12,0.73
2013-2-8,31,27,24,30,24,22,96,90,85,30.40,29.98,5,2,12,0.01
2013-2-9,35,30,26,31,27,23,93,87,79,30.40,30.06,7,2,13,0.00
2013-2-10,47,40,32,46,38,29,96,93,75,30.07,29.49,13,6,23,0.31
2013-2-11,44,34,30,36,27,24,82,76,72,30.08,29.54,11,7,24,0.01
2013-2-12,33,29,26,26,24,22,92,83,70,30.13,29.93,8,3,14,0.00
2013-2-13,45,34,26,36,30,24,93,85,65,29.93,29.74,4,2,11,0.00
2013-2-14,41,36,33,33,31,29,91,82,70,29.99,29.67,9,4,18,0.00
2013-2-15,33,29,23,31,21,14,91,73,48,30.21,29.98,7,4,14,0.00
2013-2-16,25,19,14,15,11,7,78,69,56,30.23,30.14,7,3,15,0.00
2013-2-17,34,23,10,24,14,5,82,69,51,30.24,29.97,4,1,11,0.00
2013-2-18,54,40,26,46,34,23,95,81,67,29.97,29.44,13,8,27,0.26
2013-2-19,26,17,12,23,11,5,87,78,72,30.26,29.66,12,9,26,0.27
2013-2-20,24,15,7,17,10,2,89,77,68,30.41,30.26,7,3,15,0.00
2013-2-21,31,23,14,26,20,11,94,86,78,30.40,29.95,2,0,8,0.00
2013-2-22,34,29,25,33,26,23,97,91,81,29.96,29.80,7,2,15,0.12
2013-2-23,30,25,19,23,20,16,89,82,73,30.00,29.95,4,2,10,0.03
2013-2-24,39,27,14,28,21,12,93,81,59,30.15,30.00,1,0,5,0.16
2013-2-25,45,33,22,34,28,21,95,83,62,30.16,29.90,1,0,6,0.01
2013-2-26,35,33,32,32,30,28,98,90,75,29.91,29.48,5,2,11,0.12
2013-2-27,33,32,30,32,31,29,98,96,91,29.75,29.54,6,3,11,0.30
2013-2-28,37,33,30,33,30,26,95,89,82,30.07,29.75,4,3,11,0.38
2013-3-1,30,27,25,26,23,21,90,86,81,30.22,30.06,8,4,15,0.01
2013-3-2,30,24,16,23,19,11,87,80,66,30.22,30.18,4,2,11,0.02
2013-3-3,37,22,13,20,15,10,90,74,40,30.19,30.10,3,0,7,0.01
2013-3-4,35,29,23,29,24,17,88,82,73,30.12,29.94,2,0,9,0.01
2013-3-5,36,32,27,34,30,26,97,94,88,30.02,29.79,7,2,13,0.42
2013-3-6,32,28,26,28,26,23,96,90,85,30.33,30.01,6,3,12,0.16
2013-3-7,39,30,22,28,25,19,91,83,64,30.42,30.33,3,1,5,0.04
2013-3-8,41,30,20,33,26,18,93,85,71,30.48,30.29,3,0,8,0.01
2013-3-9,40,36,31,37,33,28,92,88,83,30.29,29.81,6,2,10,0.07
2013-3-10,47,42,37,46,41,35,99,96,90,29.86,29.55,9,2,16,0.89
2013-3-11,45,37,32,45,36,28,99,95,87,29.85,29.57,8,3,16,0.06
2013-3-12,40,31,27,32,27,21,94,83,72,30.07,29.85,11,5,19,0.02
2013-3-13,34,29,24,23,21,18,87,74,54,30.35,30.07,10,5,17,0.01
2013-3-14,36,30,24,33,26,20,94,86,69,30.36,30.07,6,1,10,0.01
2013-3-15,47,37,30,41,34,28,96,90,76,30.07,29.69,6,1,10,0.01
2013-3-16,37,33,30,34,31,25,98,91,79,30.12,29.67,6,2,10,0.00
2013-3-17,39,33,28,29,26,22,88,77,63,30.19,29.96,4,1,10,0.00
2013-3-18,36,31,24,35,28,17,96,89,73,29.95,29.65,13,3,27,0.06
2013-3-19,37,27,19,22,17,11,78,65,45,30.14,29.87,11,7,23,0.01
2013-3-20,27,22,14,20,12,6,82,66,55,30.16,30.07,12,8,24,0.00
2013-3-21,35,24,14,20,14,9,83,68,47,30.11,30.03,5,2,10,0.00
2013-3-22,43,30,19,26,20,17,93,71,40,30.09,30.01,5,1,12,0.00
2013-3-23,48,36,25,29,26,22,92,69,43,30.12,29.98,3,0,8,0.00
2013-3-24,35,32,30,31,28,26,97,86,75,30.01,29.65,8,2,16,0.02
2013-3-25,37,32,27,32,28,24,97,87,79,30.11,29.71,7,3,16,0.15
2013-3-26,39,34,32,29,28,25,86,77,58,30.28,30.11,4,2,10,0.01
2013-3-27,45,37,31,30,27,23,85,69,46,30.35,30.27,5,2,10,0.00
2013-3-28,54,38,26,34,27,23,91,69,39,30.37,30.27,4,1,11,0.00
2013-4-18,47,44,39,44,39,34,88,85,82,29.59,29.54,9,6,19,2.94
2013-4-19,39,37,35,34,31,29,87,79,74,29.97,29.54,12,7,22,0.01
2013-4-20,48,39,31,31,29,26,91,70,43,30.39,29.97,7,2,16,0.00
2013-4-21,57,44,33,39,33,28,86,69,49,30.50,30.30,6,2,16,0.00
2013-4-22,68,52,36,46,39,33,90,65,36,30.30,30.00,7,2,14,0.00
2013-4-23,55,47,37,51,45,36,96,91,73,30.01,29.88,6,2,13,0.68
2013-4-24,51,42,36,38,34,30,96,75,50,30.14,29.94,7,2,13,0.30
2013-4-25,54,45,39,37,30,21,86,60,31,30.31,30.08,11,4,20,0.00
2013-4-26,67,52,38,49,41,31,85,68,51,30.32,30.23,10,4,19,0.00
2013-4-27,69,56,43,51,46,41,93,73,40,30.28,29.97,5,1,13,0.02
2013-4-28,65,56,52,58,53,50,98,90,70,29.97,29.80,2,0,8,0.06
2013-4-29,75,61,47,60,54,46,97,79,53,29.90,29.72,8,4,16,0.01
2013-4-30,86,71,59,63,58,55,91,67,39,29.89,29.74,9,5,21,0.01
2013-5-1,85,72,59,61,56,51,89,60,31,30.07,29.89,6,3,14,0.00
2013-5-2,68,59,47,56,51,44,95,74,58,30.16,30.05,6,2,10,0.36
2013-5-3,59,50,42,57,48,40,96,93,90,30.08,29.86,4,1,8,0.51
2013-5-4,72,59,51,58,54,49,97,84,55,30.01,29.88,6,1,11,0.03
2013-5-5,77,62,50,55,50,41,98,70,28,30.00,29.90,3,0,8,0.01
2013-5-6,78,64,54,51,44,33,84,54,21,29.99,29.91,7,1,14,0.00
2013-5-7,83,66,49,50,44,38,80,50,26,30.02,29.92,3,0,9,0.00
2013-5-8,83,68,51,53,48,40,83,53,25,30.01,29.91,4,1,9,0.00
2013-5-9,74,64,60,62,57,48,96,77,52,29.93,29.76,6,1,16,0.31
2013-5-10,61,52,48,60,49,-100,97,93,88,29.96,29.75,8,1,13,0.17
2013-5-11,62,52,43,52,40,-100,93,67,29,30.06,29.85,13,4,25,0.00
2013-5-12,58,48,38,32,29,24,73,50,28,30.14,30.06,10,4,19,0.00
2013-5-13,70,55,38,41,32,24,78,47,21,30.18,29.98,6,1,15,0.00
2013-5-14,93,73,54,61,51,40,68,49,25,29.98,29.63,7,3,15,0.00
2013-5-15,85,76,65,62,54,48,82,49,31,29.78,29.63,8,3,19,0.04
2013-5-16,89,67,57,63,31,-100,88,48,21,29.91,29.78,5,1,10,0.19
2013-5-17,81,68,60,66,57,-100,92,80,54,29.97,29.89,4,0,10,0.21
2013-5-18,83,71,59,66,62,58,97,77,51,30.01,29.88,3,0,10,0.02
2013-5-19,92,76,61,70,64,59,94,70,40,29.90,29.67,5,2,13,0.00
2013-5-20,88,79,68,71,61,54,80,58,32,29.78,29.64,8,4,25,0.04
2013-5-22,62,61,61,57,56,56,85,84,82,29.74,29.71,4,3,10,0.17
2013-5-23,61,56,45,57,52,40,95,86,72,30.26,29.73,10,4,16,0.03
2013-5-24,69,53,38,45,40,36,93,66,35,30.43,30.26,5,1,10,0.01
2013-5-25,59,52,48,51,42,36,89,70,50,30.38,30.22,2,0,5,0.06
2013-5-26,62,54,46,55,49,42,97,85,71,30.27,30.07,4,0,10,1.02
2013-5-27,70,63,56,65,60,55,98,92,79,30.08,29.79,2,0,9,1.11
2013-5-28,76,69,63,70,66,61,96,90,79,29.83,29.66,12,3,24,1.25
2013-5-29,85,74,62,72,67,61,96,80,61,29.90,29.73,6,3,14,1.33
2013-5-30,84,74,63,72,67,60,97,80,66,29.87,29.72,10,5,25,0.55
2013-5-31,75,69,63,71,66,62,97,88,75,29.82,29.65,6,2,17,0.76
2013-6-1,73,67,63,68,63,-100,95,88,80,29.73,29.63,8,3,19,0.46
2013-6-2,63,60,53,60,55,50,94,85,75,30.03,29.73,6,2,15,0.02
2013-6-3,72,59,46,53,49,45,98,73,44,30.11,30.01,2,0,7,0.00
2013-6-4,76,64,50,53,50,46,87,64,40,30.12,30.02,2,0,9,0.00
2013-6-5,80,67,55,58,54,49,86,65,43,30.06,29.85,5,1,12,0.00
2013-6-6,76,62,56,61,54,49,93,75,58,29.89,29.82,6,3,11,0.10
2013-6-7,75,63,52,58,52,48,90,68,42,29.91,29.85,5,2,11,0.04
2013-6-8,80,66,50,54,49,43,93,58,34,29.95,29.89,3,0,7,0.00
2013-6-9,83,70,59,65,57,49,93,66,38,29.95,29.75,7,2,16,0.05
2013-6-10,81,70,62,65,63,60,96,78,55,29.84,29.71,7,2,15,0.06
2013-6-11,90,76,61,70,64,59,92,68,40,29.90,29.75,3,1,10,0.00
2013-6-12,96,80,71,74,70,65,95,75,38,29.84,29.49,10,2,23,0.16
2013-6-13,83,72,64,67,61,55,97,71,41,29.98,29.59,7,2,14,0.26
2013-6-14,83,69,55,61,56,52,91,67,42,30.10,29.95,3,0,8,0.10
2013-6-15,83,72,64,70,64,57,88,75,57,30.00,29.83,7,1,18,0.04
2013-6-16,83,72,65,69,65,63,92,81,61,29.91,29.83,5,2,14,0.01
2013-6-17,89,83,72,67,58,52,82,45,29,29.91,29.82,7,1,11,0.00
2013-6-18,78,69,60,64,58,50,84,68,52,30.02,29.83,7,4,16,0.00
2013-6-19,86,70,54,61,56,48,87,63,40,30.09,30.00,3,1,8,0.00
2013-6-20,92,75,63,67,59,53,79,60,32,30.09,30.02,3,1,8,0.00
2013-6-22,83,76,69,75,71,66,90,85,77,30.03,29.91,7,2,16,0.03
2013-6-23,87,75,66,75,69,64,95,84,63,29.99,29.88,6,2,14,0.04
2013-6-24,87,72,66,75,68,65,97,88,65,30.06,29.85,13,2,28,0.64
2013-6-25,86,76,68,77,71,66,96,85,71,29.91,29.75,4,2,13,0.02
2013-6-26,84,75,67,75,70,66,97,85,68,29.80,29.67,5,2,15,0.61
2013-6-27,88,78,70,75,70,62,98,77,53,29.76,29.67,8,3,19,0.06
2013-6-28,83,74,65,66,63,60,85,70,49,29.71,29.59,8,4,15,0.01
2013-6-29,68,65,60,67,63,58,98,94,86,29.73,29.56,5,1,9,1.68
2013-6-30,79,68,60,65,59,48,94,75,48,29.95,29.73,8,3,15,0.01
2013-7-1,77,67,56,56,53,50,89,64,39,30.02,29.93,10,5,18,0.00
2013-7-2,73,64,57,60,56,53,89,76,56,30.04,29.99,7,3,13,0.00
2013-7-3,76,64,58,64,60,55,96,87,66,30.05,29.99,2,0,6,0.02
2013-7-4,85,71,59,66,62,57,95,75,48,30.07,29.98,4,1,9,0.02
2013-7-5,87,74,61,69,63,59,95,71,40,30.05,29.97,3,1,7,0.00
2013-7-6,86,73,65,69,66,62,95,79,50,30.02,29.93,3,0,7,0.00
2013-7-7,90,79,68,73,69,64,91,74,52,29.97,29.90,4,2,12,0.00
2013-7-8,87,77,69,76,70,-100,95,83,66,30.00,29.91,6,2,13,0.37
2013-7-9,87,79,73,79,75,71,95,88,75,29.97,29.82,8,1,16,0.10
2013-7-10,86,78,68,76,68,-100,95,75,56,29.96,29.79,6,1,13,0.01
2013-7-11,68,64,62,64,61,59,95,89,83,30.04,29.96,1,0,3,0.00
2013-8-17,85,82,77,60,58,55,56,44,38,30.18,30.11,2,0,7,0.00
2013-8-18,78,71,65,64,51,-100,76,66,62,30.08,30.06,0,0,1,0.00
2013-8-19,85,69,58,67,52,-100,93,72,49,30.09,29.99,4,0,7,0.00
2013-8-20,88,74,63,70,64,-100,93,75,46,30.08,29.99,4,1,10,0.00
2013-8-21,90,76,64,71,67,62,93,75,50,30.05,29.94,4,1,12,0.00
2013-8-22,75,70,67,70,66,-100,97,90,80,30.11,29.96,6,1,14,1.11
2013-8-23,87,73,63,69,64,57,99,77,41,30.13,30.06,4,0,8,0.02
2013-8-24,87,72,60,71,62,-100,91,75,53,30.21,30.12,3,0,7,0.01
2013-8-25,88,75,63,71,66,59,86,73,54,30.22,30.11,4,1,11,0.00
2013-8-26,91,77,66,76,70,62,91,78,60,30.13,29.96,3,1,8,0.00
2013-8-27,92,79,72,77,72,69,92,82,58,29.98,29.87,3,1,10,0.00
2013-8-28,93,84,73,80,76,68,89,76,66,29.97,29.88,3,1,8,0.00
2013-8-29,89,77,69,74,70,67,96,82,56,30.04,29.93,1,0,7,0.00
2013-8-30,96,79,68,79,72,65,96,80,54,29.94,29.72,6,1,13,0.11
2013-8-31,87,74,68,74,68,-100,95,84,65,29.79,29.71,4,1,10,0.11
2013-9-1,87,75,63,74,69,62,98,82,65,29.78,29.69,7,1,13,0.00
2013-9-2,82,70,61,67,62,57,94,78,52,29.95,29.77,5,1,11,0.00
2013-9-3,77,65,54,61,57,53,96,77,51,30.07,29.95,4,0,8,0.00
2013-9-4,84,69,55,63,59,53,94,72,43,30.11,30.02,5,1,9,0.00
2013-9-5,84,70,60,69,61,54,90,74,48,30.18,30.07,2,0,8,0.00
2013-9-6,88,72,59,68,61,54,86,70,49,30.17,29.97,3,1,9,0.00
2013-9-7,89,74,63,70,64,-100,91,74,50,29.98,29.85,4,1,10,0.01
2013-9-8,88,77,70,72,69,66,92,77,56,29.95,29.85,2,0,7,0.01
2013-9-9,97,81,68,77,72,66,96,77,48,29.89,29.78,4,1,11,0.00
2013-9-10,96,83,72,73,68,65,85,63,37,29.98,29.85,5,1,15,0.00
2013-9-11,92,79,71,71,68,65,87,70,48,30.01,29.95,6,2,12,0.00
2013-9-12,83,73,60,70,60,50,94,67,34,30.04,29.93,9,2,18,0.00
2013-9-13,73,60,50,53,47,42,93,65,33,30.16,30.03,4,1,10,0.00
2013-9-14,75,58,43,49,43,-100,94,64,33,30.17,30.01,3,0,8,0.00
2013-9-15,65,57,53,60,52,45,97,84,73,30.12,29.95,4,1,9,0.14
2013-9-16,72,59,49,56,51,46,97,77,43,30.33,30.13,6,2,12,0.05
2013-9-17,74,59,46,56,51,45,96,78,52,30.29,30.08,3,0,9,0.01
2013-9-18,75,62,59,69,57,54,86,84,81,30.08,29.90,3,1,7,0.00
2013-9-19,93,80,69,71,69,65,95,72,44,29.91,29.72,5,2,15,0.00
2013-9-20,74,67,56,67,61,52,97,83,58,29.83,29.73,9,3,16,0.08
2013-9-21,71,58,51,53,48,-100,95,73,44,29.93,29.81,5,2,17,0.00
2013-9-22,75,58,44,50,47,43,97,71,39,30.03,29.93,4,0,14,0.00
2013-9-23,78,60,45,50,47,42,91,66,32,30.08,29.97,3,0,8,0.00
2013-9-24,81,61,47,54,49,45,92,69,34,30.00,29.86,2,0,7,0.00
2013-9-25,82,64,50,53,51,47,93,67,35,29.93,29.86,3,1,13,0.00
2013-9-26,85,65,50,56,50,44,96,66,26,30.03,29.92,2,0,7,0.00
2013-9-27,85,67,51,56,50,45,91,60,25,30.12,29.99,4,1,10,0.00
2013-9-28,61,57,55,52,51,50,88,80,69,30.02,30.00,2,0,4,0.00
2013-11-25,32,30,26,27,24,18,88,77,65,30.24,30.11,7,2,17,0.00
2013-11-26,36,30,26,29,25,18,89,80,68,30.12,30.05,7,3,14,0.00
2013-12-10,18,16,14,13,10,8,80,76,73,30.35,30.25,2,0,6,0.00
2013-12-11,21,13,0,16,8,-6,92,80,62,30.63,30.30,6,2,13,0.00
2013-12-12,25,11,-3,16,5,-8,88,78,66,30.61,30.25,6,2,14,0.00
2013-12-13,35,24,13,28,20,9,96,85,70,30.26,30.07,2,0,6,0.03
2013-12-14,32,27,14,30,24,-100,97,93,89,30.09,29.91,5,2,9,0.04
2013-12-15,15,14,10,13,10,7,93,84,76,30.16,30.01,8,3,16,0.01
2013-12-16,20,16,11,17,13,8,94,88,78,30.16,30.04,4,1,8,0.01
2013-12-17,34,25,18,29,22,16,95,87,73,30.15,30.01,9,4,16,0.06
2013-12-18,35,24,10,31,18,7,90,80,65,30.20,29.85,10,4,18,0.01
2013-12-19,40,36,32,36,34,30,97,90,84,29.91,29.76,5,1,12,0.30
2013-12-20,36,34,31,35,33,31,98,98,97,29.82,29.72,3,0,8,0.24
2013-12-21,34,30,28,34,28,-100,98,96,94,29.85,29.58,4,1,8,0.01
2013-12-22,34,30,23,33,28,20,98,94,89,30.17,29.60,6,3,12,0.15
2013-12-23,22,10,1,20,6,-4,91,84,78,30.54,30.17,7,4,16,0.01
2013-12-24,21,8,-2,17,3,-6,87,81,74,30.64,30.36,6,3,13,0.00
2013-12-25,28,24,19,26,21,14,94,88,80,30.38,30.16,7,3,15,0.00
2013-12-26,35,27,16,31,23,12,92,84,76,30.32,30.16,9,3,18,0.02
2013-12-27,42,34,23,36,30,22,96,88,78,30.31,30.12,7,2,14,0.01
2013-12-28,49,38,32,40,32,-100,91,82,66,30.12,29.85,6,3,16,0.00
2013-12-29,37,27,12,33,24,6,96,89,81,30.24,29.78,10,5,19,0.00
2013-12-30,14,9,2,9,4,-2,90,82,71,30.37,30.23,5,1,12,0.00
2013-12-31,15,9,-1,12,6,-4,91,87,79,30.42,30.23,2,0,6,0.00
2014-1-1,24,19,14,21,17,11,93,89,82,30.29,30.16,5,2,10,0.00
2014-1-2,17,12,3,14,9,-2,91,86,81,30.47,30.14,5,3,12,0.00